Time;durP1;ratioP1;P1;durP2;ratioP2;P2;SDS_P1;SDS_P2;PMS_P1;PMS_P2;Temp;Humidity;BMP_temperature;BMP_pressure;BME280_temperature;BME280_humidity;BME280_pressure;Samples;Min_cycle;Max_cycle;Signal;HPM_P1;HPM_P2
2022/08/07 00:00:36;;;;;;;3.83;1.47;;;;;;;15.36;60.50;101487.50;3587403;80;99193;-81
2022/08/07 00:05:37;;;;;;;4.00;1.30;;;;;;;15.32;60.96;101486.64;3593337;82;98865;-81
2022/08/07 00:10:39;;;;;;;2.60;1.43;;;;;;;15.27;61.00;101492.53;3592260;80;99219;-81
2022/08/07 00:15:40;;;;;;;2.77;1.63;;;;;;;15.22;61.24;101488.72;3602361;82;99136;-81
2022/08/07 00:20:41;;;;;;;5.30;1.43;;;;;;;15.18;61.40;101492.05;3595202;82;98808;-81
2022/08/07 00:25:42;;;;;;;4.30;1.60;;;;;;;15.10;61.51;101498.72;3576948;81;99054;-81
2022/08/07 00:30:43;;;;;;;3.17;1.17;;;;;;;15.02;61.67;101503.39;3590148;80;98610;-81
2022/08/07 00:35:44;;;;;;;4.33;1.77;;;;;;;15.01;61.97;101498.22;3601750;81;98838;-81
2022/08/07 00:40:45;;;;;;;4.40;1.73;;;;;;;14.94;62.27;101500.32;3597659;80;98953;-81
2022/08/07 00:45:47;;;;;;;4.57;1.50;;;;;;;14.91;62.38;101501.09;3602439;80;98838;-81
2022/08/07 00:50:48;;;;;;;6.87;2.17;;;;;;;14.87;62.47;101505.80;3595801;80;98421;-80
2022/08/07 00:55:50;;;;;;;3.83;1.87;;;;;;;14.81;62.61;101503.73;3603403;81;98373;-81
2022/08/07 01:00:51;;;;;;;3.37;1.65;;;;;;;14.74;62.72;101498.13;3597182;81;98564;-80
2022/08/07 01:05:54;;;;;;;3.40;1.40;;;;;;;14.68;62.83;101505.19;3602525;80;98774;-81
2022/08/07 01:10:56;;;;;;;5.37;2.13;;;;;;;14.62;63.17;101494.23;3643720;79;98777;-80
2022/08/07 01:15:58;;;;;;;4.27;1.83;;;;;;;14.59;63.32;101497.17;3655144;79;98825;-81
2022/08/07 01:21:10;;;;;;;5.65;1.90;;;;;;;14.56;63.38;101504.06;3614990;80;98909;-81
2022/08/07 01:26:14;;;;;;;7.60;3.20;;;;;;;14.51;63.49;101502.41;3621588;80;32679;-80
2022/08/07 01:31:18;;;;;;;5.12;2.27;;;;;;;14.43;63.72;101503.50;3570798;81;98726;-81
2022/08/07 01:36:19;;;;;;;5.65;2.42;;;;;;;14.38;63.72;101490.59;3606515;80;98860;-80
2022/08/07 01:41:22;;;;;;;4.97;2.05;;;;;;;14.31;63.81;101494.63;3604899;81;98800;-80
2022/08/07 01:46:25;;;;;;;5.55;2.05;;;;;;;14.24;63.97;101490.39;3613447;80;98817;-81
2022/08/07 01:51:26;;;;;;;4.92;2.27;;;;;;;14.19;64.13;101490.15;3609779;81;98750;-81
2022/08/07 01:56:32;;;;;;;7.92;2.20;;;;;;;14.12;64.17;101488.62;3618147;81;31841;-81
2022/08/07 02:01:39;;;;;;;;;;;;;;;14.04;64.25;101489.70;3612992;81;98723;-81
2022/08/07 02:06:43;;;;;;;5.17;2.40;;;;;;;13.99;65.55;101492.80;3616591;80;84965;-81
2022/08/07 02:11:48;;;;;;;4.55;2.10;;;;;;;13.92;64.71;101489.94;3606681;80;98844;-81
2022/08/07 02:16:52;;;;;;;6.00;2.22;;;;;;;13.88;64.91;101491.03;3615816;81;98806;-81
2022/08/07 02:21:54;;;;;;;7.67;2.12;;;;;;;13.85;65.04;101487.65;3606250;81;99221;-81
2022/08/07 02:26:58;;;;;;;4.53;2.00;;;;;;;13.79;65.05;101495.45;3612136;80;33666;-81
2022/08/07 02:32:02;;;;;;;4.97;2.08;;;;;;;13.75;65.21;101504.89;3583652;81;98394;-81
2022/08/07 02:37:07;;;;;;;6.62;2.45;;;;;;;13.72;65.28;101503.66;3587063;80;98757;-81
2022/08/07 02:42:11;;;;;;;6.00;2.00;;;;;;;13.66;65.39;101500.19;3577904;81;98811;-81
2022/08/07 02:47:16;;;;;;;6.45;2.42;;;;;;;13.61;65.65;101497.16;3586055;80;98912;-81
2022/08/07 02:52:29;;;;;;;5.87;2.30;;;;;;;13.56;65.71;101501.63;3590800;80;99232;-81
2022/08/07 02:57:31;;;;;;;6.35;2.40;;;;;;;13.51;65.89;101510.84;3595384;81;98879;-81
2022/08/07 03:02:35;;;;;;;5.92;2.50;;;;;;;13.48;65.92;101510.99;3580636;81;98817;-81
2022/08/07 03:07:37;;;;;;;7.00;1.87;;;;;;;13.44;65.95;101512.08;3601207;81;98680;-81
2022/08/07 03:12:39;;;;;;;6.15;2.67;;;;;;;13.30;66.42;101521.54;3587041;80;98587;-81
2022/08/07 03:17:41;;;;;;;4.72;2.10;;;;;;;13.30;66.42;101521.54;3599182;81;98885;-81
2022/08/07 03:22:44;;;;;;;7.07;3.07;;;;;;;13.28;66.61;101519.70;3587233;81;98810;-81
2022/08/07 03:27:47;;;;;;;8.33;2.37;;;;;;;13.23;66.77;101516.67;3593635;80;98838;-81
2022/08/07 03:32:49;;;;;;;8.40;2.60;;;;;;;13.21;66.97;101514.06;3590101;80;98486;-81
2022/08/07 03:37:58;;;;;;;5.53;2.10;;;;;;;13.19;66.89;101514.42;3598139;82;98535;-81
2022/08/07 03:43:00;;;;;;;7.00;2.30;;;;;;;13.19;66.89;101514.42;3576742;80;98708;-81
2022/08/07 03:48:02;;;;;;;5.77;2.30;;;;;;;13.15;67.33;101514.16;3584090;80;98791;-82
2022/08/07 03:53:04;;;;;;;5.55;2.35;;;;;;;12.95;67.59;101502.31;3582264;81;99250;-82
2022/08/07 03:58:05;;;;;;;6.35;2.10;;;;;;;12.95;67.59;101502.31;3590201;80;98789;-81
2022/08/07 04:03:06;;;;;;;6.37;2.10;;;;;;;13.06;67.79;101521.30;3565617;81;98736;-81
2022/08/07 04:08:13;;;;;;;4.63;1.87;;;;;;;13.04;68.01;101526.38;3567964;81;29663;-81
2022/08/07 04:13:16;;;;;;;4.45;1.70;;;;;;;13.05;68.15;101529.95;3542168;81;98736;-81
2022/08/07 04:18:17;;;;;;;3.47;1.77;;;;;;;13.06;68.37;101530.98;3554027;81;98797;-81
2022/08/07 04:23:20;;;;;;;6.30;2.27;;;;;;;13.08;68.29;101532.78;3548306;80;98911;-82
2022/08/07 04:28:21;;;;;;;5.22;2.10;;;;;;;13.11;68.46;101528.48;3553978;81;98751;-81
2022/08/07 04:33:24;;;;;;;6.17;2.40;;;;;;;13.13;68.64;101532.48;3549089;80;99129;-81
2022/08/07 04:38:25;;;;;;;3.58;1.98;;;;;;;13.11;68.84;101525.72;3549707;81;32493;-82
2022/08/07 04:43:32;;;;;;;5.33;2.00;;;;;;;13.11;69.16;101528.48;3572933;81;98645;-81
2022/08/07 04:48:39;;;;;;;;;;;;;;;13.16;69.32;101528.19;3548437;81;98716;-81
2022/08/07 04:54:09;;;;;;;;;;;;;;;13.17;70.41;101534.73;3537481;82;85149;-81
2022/08/07 04:59:33;;;;;;;4.83;1.92;;;;;;;13.21;70.50;101528.69;3532913;82;85185;-81
2022/08/07 05:05:01;;;;;;;5.03;2.30;;;;;;;13.28;69.56;101541.83;3534566;81;98800;-81
2022/08/07 05:10:23;;;;;;;5.28;2.27;;;;;;;13.35;69.67;101541.97;3536265;82;98891;-81
2022/08/07 05:15:30;;;;;;;6.03;1.90;;;;;;;13.41;69.81;101537.73;3541949;81;99191;-81
2022/08/07 05:20:45;;;;;;;3.87;1.77;;;;;;;13.47;69.75;101541.17;3548611;80;98527;-81
2022/08/07 05:25:48;;;;;;;4.83;2.00;;;;;;;13.53;69.84;101533.38;3560924;81;98692;-81
2022/08/07 05:30:51;;;;;;;3.93;1.97;;;;;;;13.62;70.17;101538.09;3601102;80;98699;-81
2022/08/07 05:35:52;;;;;;;3.20;1.90;;;;;;;13.74;70.52;101540.64;3630727;80;98864;-81
2022/08/07 05:40:54;;;;;;;5.28;1.85;;;;;;;14.00;72.46;101527.61;3670432;79;98829;-81
2022/08/07 05:45:57;;;;;;;4.25;1.82;;;;;;;14.50;72.41;101527.73;3689750;79;98846;-81
2022/08/07 05:51:00;;;;;;;2.85;1.62;;;;;;;15.24;72.17;101528.77;3673767;79;98561;-81
2022/08/07 05:56:03;;;;;;;6.70;2.12;;;;;;;16.13;71.92;101535.26;3646119;80;32485;-81
2022/08/07 06:01:07;;;;;;;4.53;2.08;;;;;;;17.07;70.69;101534.88;3640680;80;98585;-81
2022/08/07 06:06:08;;;;;;;4.42;1.95;;;;;;;18.02;69.62;101545.47;3644060;80;98902;-81
2022/08/07 06:11:09;;;;;;;4.45;1.90;;;;;;;18.92;68.29;101541.61;3640647;80;98800;-82
2022/08/07 06:16:10;;;;;;;5.35;2.20;;;;;;;19.77;65.11;101537.05;3619854;79;98001;-81
2022/08/07 06:21:13;;;;;;;5.80;1.98;;;;;;;20.50;63.31;101531.31;3639034;79;98848;-81
2022/08/07 06:26:15;;;;;;;4.95;1.85;;;;;;;21.11;61.27;101537.16;3642027;80;32537;-81
2022/08/07 06:31:16;;;;;;;9.08;2.08;;;;;;;21.69;59.45;101540.08;3601335;81;98573;-82
2022/08/07 06:36:17;;;;;;;3.62;2.15;;;;;;;22.17;57.91;101527.80;3576035;81;98797;-82
2022/08/07 06:41:24;;;;;;;5.03;2.60;;;;;;;22.69;56.48;101537.19;3576714;81;99310;-82
2022/08/07 06:46:26;;;;;;;4.72;1.90;;;;;;;23.02;55.19;101539.68;3575154;80;98849;-81
2022/08/07 06:51:34;;;;;;;5.22;2.42;;;;;;;23.24;53.47;101536.59;3581110;80;98944;-81
2022/08/07 06:56:42;;;;;;;3.65;2.20;;;;;;;23.11;52.69;101556.70;3586102;81;26704;-82
2022/08/07 07:01:44;;;;;;;6.97;2.40;;;;;;;23.09;52.63;101553.55;3576973;80;98625;-82
2022/08/07 07:06:45;;;;;;;6.42;2.37;;;;;;;23.07;51.88;101553.81;3582171;81;98824;-81
2022/08/07 07:12:28;;;;;;;4.80;2.22;;;;;;;23.02;51.65;101555.13;3577435;80;100617;-81
2022/08/07 07:18:02;;;;;;;7.50;2.60;;;;;;;22.95;51.37;101557.30;3581896;81;98991;-81
2022/08/07 07:23:05;;;;;;;3.77;2.17;;;;;;;22.55;50.73;101559.32;3587707;81;99311;-81
2022/08/07 07:28:27;;;;;;;4.65;2.10;;;;;;;22.18;50.68;101544.81;3582430;81;98746;-81
2022/08/07 07:33:30;;;;;;;5.65;2.10;;;;;;;22.24;50.87;101550.88;3609760;80;98847;-81
2022/08/07 07:38:35;;;;;;;5.05;2.27;;;;;;;22.27;50.52;101544.42;3619594;80;33107;-81
2022/08/07 07:43:41;;;;;;;4.72;1.87;;;;;;;22.11;49.32;101532.30;3551436;80;98608;-83
2022/08/07 07:48:43;;;;;;;5.10;1.90;;;;;;;21.92;49.11;101538.67;3580264;80;98601;-81
2022/08/07 07:53:46;;;;;;;7.50;1.92;;;;;;;21.79;48.76;101534.28;3581909;80;99291;-81
2022/08/07 07:58:48;;;;;;;5.30;1.80;;;;;;;21.79;48.46;101532.11;3597700;80;98819;-83
2022/08/07 08:03:51;;;;;;;3.85;1.85;;;;;;;21.81;48.72;101531.86;3618726;80;98821;-82
2022/08/07 08:08:53;;;;;;;3.77;1.70;;;;;;;21.80;48.54;101528.08;3624068;80;32478;-83
2022/08/07 08:13:54;;;;;;;7.05;1.98;;;;;;;21.83;48.50;101525.21;3612821;80;98437;-82
2022/08/07 08:18:57;;;;;;;3.27;1.52;;;;;;;21.91;48.54;101525.88;3620922;80;98631;-82
2022/08/07 08:29:21;;;;;;;6.12;1.85;;;;;;;22.37;48.07;101526.59;3660286;79;99108;-81
2022/08/07 08:34:24;;;;;;;5.08;1.98;;;;;;;22.96;48.53;101513.94;3574197;80;98850;-87
2022/08/07 08:39:27;;;;;;;4.45;1.87;;;;;;;23.36;47.74;101521.05;3496237;83;98805;-82
2022/08/07 08:44:55;;;;;;;4.10;1.80;;;;;;;24.02;47.29;101523.60;3517442;82;98365;-83
2022/08/07 08:50:04;;;;;;;4.15;2.10;;;;;;;24.64;46.36;101516.67;3502584;82;98526;-83
2022/08/07 08:55:28;;;;;;;3.35;1.52;;;;;;;25.75;46.33;101515.73;3554045;81;99016;-84
2022/08/07 09:00:35;;;;;;;4.72;2.02;;;;;;;26.94;44.66;101519.26;3475647;82;98716;-85
2022/08/07 09:06:07;;;;;;;3.92;1.60;;;;;;;27.56;42.13;101517.16;3470628;82;98831;-86
2022/08/07 09:11:26;;;;;;;2.60;1.53;;;;;;;28.48;41.90;101511.33;3461029;82;98914;-82
2022/08/07 09:16:55;;;;;;;6.92;1.72;;;;;;;29.47;38.41;101504.58;3572430;81;97926;-86
2022/08/07 09:22:41;;;;;;;5.00;1.98;;;;;;;29.84;39.08;101505.30;3474005;83;98893;-85
2022/08/07 09:28:04;;;;;;;5.95;2.00;;;;;;;30.31;38.18;101501.64;3533207;82;98882;-83
2022/08/07 09:33:23;;;;;;;4.05;1.80;;;;;;;30.61;36.65;101496.12;3625417;79;99275;-86
2022/08/07 09:38:46;;;;;;;6.55;2.05;;;;;;;30.30;36.48;101492.32;3632416;80;28233;-82
2022/08/07 09:44:04;;;;;;;4.50;1.70;;;;;;;30.30;35.48;101483.80;3630011;80;98765;-84
2022/08/07 09:49:34;;;;;;;5.60;1.80;;;;;;;30.51;34.93;101486.91;3621229;80;98597;-84
2022/08/07 09:54:50;;;;;;;3.52;1.87;;;;;;;30.57;34.28;101480.69;3668958;79;98598;-83
2022/08/07 10:00:13;;;;;;;3.67;1.77;;;;;;;31.13;34.84;101478.17;3632788;80;98911;-83
2022/08/07 10:05:31;;;;;;;4.22;1.57;;;;;;;30.88;32.20;101476.75;3600027;80;98825;-84
2022/08/07 10:11:04;;;;;;;2.42;1.40;;;;;;;29.32;32.85;101465.41;3623549;80;98839;-83
2022/08/07 10:16:36;;;;;;;2.77;1.50;;;;;;;28.33;34.02;101462.22;3624241;80;99248;-83
2022/08/07 10:21:54;;;;;;;6.55;2.08;;;;;;;28.81;34.66;101446.22;3660422;79;99289;-82
2022/08/07 10:27:42;;;;;;;5.08;2.00;;;;;;;29.37;34.63;101443.48;3632039;80;27385;-83
2022/08/07 10:33:26;;;;;;;2.45;1.62;;;;;;;30.43;34.51;101439.48;3605229;80;98573;-83
2022/08/07 10:38:33;;;;;;;3.87;2.10;;;;;;;30.96;33.74;101434.48;3605632;80;28236;-82
2022/08/07 10:43:48;;;;;;;4.95;1.60;;;;;;;31.28;33.04;101425.67;3597353;80;98724;-84
2022/08/07 10:49:16;;;;;;;3.27;2.00;;;;;;;31.21;30.57;101418.19;3602179;80;98678;-82
2022/08/07 10:54:41;;;;;;;4.42;1.80;;;;;;;31.00;31.24;101422.27;3592990;81;98868;-81
2022/08/07 10:59:56;;;;;;;;;;;;;;;31.35;30.61;101411.68;3600977;80;99367;-81
2022/08/07 11:05:33;;;;;;;3.17;1.62;;;;;;;32.03;28.66;101405.70;3582710;80;85057;-80
2022/08/07 11:10:58;;;;;;;3.90;1.60;;;;;;;32.04;29.38;101393.78;3597943;80;98873;-84
2022/08/07 11:16:36;;;;;;;5.50;1.98;;;;;;;32.07;29.83;101389.94;3597728;80;98803;-81
2022/08/07 11:21:59;;;;;;;6.10;2.02;;;;;;;32.38;29.65;101389.23;3592933;80;98827;-81
2022/08/07 11:27:22;;;;;;;3.50;1.57;;;;;;;31.25;30.43;101391.75;3561575;80;27584;-82
2022/08/07 11:32:35;;;;;;;2.65;1.55;;;;;;;30.60;30.28;101383.09;3567394;80;98558;-82
2022/08/07 11:38:10;;;;;;;3.65;1.70;;;;;;;30.21;30.81;101379.44;3597389;80;98637;-81
2022/08/07 11:43:14;;;;;;;;;;;;;;;31.07;30.59;101362.92;3591822;80;99161;-80
2022/08/07 11:48:55;;;;;;;2.67;1.60;;;;;;;31.68;27.44;101362.29;3587879;80;84243;-83
2022/08/07 11:54:31;;;;;;;5.35;1.50;;;;;;;31.25;30.15;101344.81;3587824;80;98798;-82
2022/08/07 12:00:12;;;;;;;2.80;1.47;;;;;;;31.97;28.91;101347.88;3600011;80;98885;-85
2022/08/07 12:05:47;;;;;;;3.85;1.65;;;;;;;32.25;28.99;101346.09;3594838;80;98815;-85
2022/08/07 12:11:01;;;;;;;4.83;1.63;;;;;;;32.84;29.48;101348.53;3580346;80;98810;-82
2022/08/07 12:16:28;;;;;;;4.47;1.40;;;;;;;32.94;29.08;101350.69;3600936;80;98870;-82
2022/08/07 12:22:07;;;;;;;3.33;1.27;;;;;;;32.50;28.84;101338.95;3537639;81;98909;-82
2022/08/07 12:27:17;;;;;;;3.12;1.82;;;;;;;32.45;29.22;101333.19;3595216;80;98837;-83
2022/08/07 12:32:51;;;;;;;4.10;1.90;;;;;;;32.46;29.32;101329.05;3594567;80;98909;-82
2022/08/07 12:37:55;;;;;;;2.70;1.52;;;;;;;32.39;29.24;101323.81;3569885;81;98604;-79
2022/08/07 12:43:00;;;;;;;3.17;1.57;;;;;;;32.33;27.91;101315.88;3613499;79;98883;-82
2022/08/07 12:48:19;;;;;;;2.65;1.45;;;;;;;32.06;27.68;101310.69;3606453;80;98842;-81
2022/08/07 12:53:51;;;;;;;5.05;1.60;;;;;;;31.56;26.71;101311.59;3599710;80;98871;-81
2022/08/07 12:58:53;;;;;;;5.78;1.90;;;;;;;31.26;27.94;101304.50;3549395;81;98811;-84
2022/08/07 13:04:29;;;;;;;4.72;1.82;;;;;;;31.94;28.96;101304.75;3617182;80;98837;-81
2022/08/07 13:09:51;;;;;;;4.17;2.08;;;;;;;32.14;28.50;101296.14;3611161;80;98749;-83
2022/08/07 13:15:17;;;;;;;4.40;1.70;;;;;;;32.58;29.19;101297.27;3610606;80;98348;-81
2022/08/07 13:20:42;;;;;;;4.28;1.60;;;;;;;32.85;28.99;101296.69;3617461;80;98556;-82
2022/08/07 13:25:51;;;;;;;4.15;1.87;;;;;;;32.48;28.03;101290.86;3620313;80;98739;-82
2022/08/07 13:30:58;;;;;;;5.47;1.87;;;;;;;32.03;27.96;101275.45;3619364;80;98578;-82
2022/08/07 13:36:07;;;;;;;3.98;1.60;;;;;;;31.49;27.46;101278.52;3617796;79;98847;-82
2022/08/07 13:41:29;;;;;;;3.80;2.15;;;;;;;31.64;28.08;101267.78;3594964;81;98794;-81
2022/08/07 13:46:35;;;;;;;3.80;1.67;;;;;;;31.92;28.01;101264.62;3602387;80;97920;-80
2022/08/07 13:51:38;;;;;;;4.53;2.20;;;;;;;31.81;26.79;101258.83;3612289;80;98881;-81
2022/08/07 13:56:42;;;;;;;3.80;1.67;;;;;;;31.37;26.79;101254.84;3608944;80;28282;-85
2022/08/07 14:02:07;;;;;;;2.77;1.50;;;;;;;30.94;27.50;101242.27;3608567;80;98955;-81
2022/08/07 14:07:09;;;;;;;3.08;1.50;;;;;;;30.46;28.10;101236.80;3613151;80;98573;-81
2022/08/07 14:12:36;;;;;;;3.02;1.60;;;;;;;30.18;29.27;101234.18;3599775;81;99253;-82
2022/08/07 14:17:41;;;;;;;4.10;2.02;;;;;;;30.15;29.66;101229.47;3604660;81;98788;-80
2022/08/07 14:22:48;;;;;;;3.00;1.57;;;;;;;29.83;29.95;101227.62;3598861;82;98865;-81
2022/08/07 14:27:51;;;;;;;7.12;1.70;;;;;;;29.68;31.17;101229.05;3600749;80;98850;-82
2022/08/07 14:33:00;;;;;;;4.22;1.52;;;;;;;29.31;29.43;101225.62;3556275;81;98505;-81
2022/08/07 14:38:03;;;;;;;3.47;2.03;;;;;;;28.98;30.15;101217.88;3511633;82;98464;-81
2022/08/07 14:43:09;;;;;;;3.52;1.42;;;;;;;28.93;30.93;101215.67;3504713;81;98825;-81
2022/08/07 14:48:14;;;;;;;5.33;1.55;;;;;;;28.91;32.45;101213.94;3541368;82;98753;-82
2022/08/07 14:53:17;;;;;;;1.72;1.20;;;;;;;28.70;31.44;101213.61;3521328;82;99156;-82
2022/08/07 14:58:24;;;;;;;3.37;1.32;;;;;;;28.32;31.21;101219.16;3537490;82;98864;-81
2022/08/07 15:03:28;;;;;;;3.90;1.70;;;;;;;28.13;32.14;101208.58;3522617;82;98910;-81
2022/08/07 15:08:42;;;;;;;4.67;1.77;;;;;;;27.70;30.73;101217.51;3531180;81;27652;-81
2022/08/07 15:14:02;;;;;;;4.42;1.60;;;;;;;27.43;32.23;101204.05;3524233;82;98717;-81
2022/08/07 15:19:12;;;;;;;2.50;1.80;;;;;;;27.48;31.16;101199.97;3529465;82;98703;-84
2022/08/07 15:24:24;;;;;;;4.50;1.70;;;;;;;27.17;31.61;101198.57;3520513;82;98852;-81
2022/08/07 15:29:36;;;;;;;3.20;1.62;;;;;;;26.97;31.82;101196.19;3529988;82;98815;-81
2022/08/07 15:34:54;;;;;;;3.75;1.50;;;;;;;26.84;32.57;101194.16;3561890;80;99195;-81
2022/08/07 15:40:00;;;;;;;3.12;1.50;;;;;;;26.86;33.01;101197.94;3601511;80;98851;-83
2022/08/07 15:45:07;;;;;;;4.35;1.50;;;;;;;26.66;32.85;101195.56;3601449;80;26804;-83
2022/08/07 15:50:15;;;;;;;6.00;1.67;;;;;;;26.39;33.08;101188.42;3587507;80;98645;-85
2022/08/07 15:55:19;;;;;;;4.65;1.87;;;;;;;26.24;33.35;101183.81;3602407;80;99075;-81
2022/08/07 16:00:24;;;;;;;2.45;1.42;;;;;;;26.06;33.53;101179.53;3593147;80;98847;-80
2022/08/07 16:05:26;;;;;;;3.07;1.47;;;;;;;26.03;33.93;101183.27;3607115;80;98757;-83
2022/08/07 16:10:29;;;;;;;3.30;1.65;;;;;;;25.76;33.86;101176.86;3594392;80;98774;-81
2022/08/07 16:16:10;;;;;;;4.12;1.70;;;;;;;25.71;34.20;101175.28;3605535;79;98839;-82
2022/08/07 16:21:26;;;;;;;2.70;1.25;;;;;;;25.63;34.77;101171.95;3474811;83;98933;-83
2022/08/07 16:27:09;;;;;;;4.00;1.55;;;;;;;25.61;34.93;101173.66;3572378;80;27480;-81
2022/08/07 16:32:15;;;;;;;4.22;1.52;;;;;;;25.52;35.15;101164.53;3595206;80;98681;-83
2022/08/07 16:37:34;;;;;;;3.52;1.75;;;;;;;25.44;35.00;101165.27;3596061;80;98762;-82
2022/08/07 16:43:04;;;;;;;3.08;1.45;;;;;;;25.30;34.89;101163.77;3589137;80;98885;-81
2022/08/07 16:48:43;;;;;;;2.42;1.42;;;;;;;25.06;34.40;101159.80;3595963;80;98825;-81
2022/08/07 16:54:10;;;;;;;2.85;1.30;;;;;;;24.83;34.64;101156.02;3596471;80;98797;-81
2022/08/07 16:59:32;;;;;;;2.58;1.27;;;;;;;24.48;34.32;101140.97;3617157;80;98752;-81
2022/08/07 17:04:56;;;;;;;2.90;1.70;;;;;;;24.33;34.33;101149.11;3594280;80;98833;-81
2022/08/07 17:10:08;;;;;;;6.00;1.47;;;;;;;24.19;34.86;101148.80;3553510;80;98875;-80
2022/08/07 17:15:37;;;;;;;3.33;1.37;;;;;;;23.97;34.91;101154.96;3604491;80;98943;-80
2022/08/07 17:20:42;;;;;;;3.92;1.35;;;;;;;23.79;35.60;101155.48;3590044;80;98507;-80
2022/08/07 17:26:13;;;;;;;7.28;2.20;;;;;;;23.64;36.21;101154.34;3593484;80;98572;-80
2022/08/07 17:31:24;;;;;;;6.10;1.50;;;;;;;23.46;36.44;101159.73;3570651;80;98638;-81
2022/08/07 17:36:31;;;;;;;3.27;1.45;;;;;;;23.29;36.85;101156.03;3570535;80;98707;-80
2022/08/07 17:41:56;;;;;;;5.67;2.60;;;;;;;23.11;37.36;101160.72;3558912;80;99113;-81
2022/08/07 17:47:02;;;;;;;6.47;3.27;;;;;;;22.98;37.76;101156.30;3590924;80;98776;-81
2022/08/07 17:52:39;;;;;;;7.10;2.62;;;;;;;22.83;38.14;101164.33;3595436;80;98824;-82
2022/08/07 17:58:03;;;;;;;7.22;2.22;;;;;;;22.66;38.54;101165.59;3596394;80;98813;-81
2022/08/07 18:03:19;;;;;;;4.20;1.75;;;;;;;22.48;39.05;101165.88;3596351;80;99008;-81
2022/08/07 18:08:30;;;;;;;14.93;3.02;;;;;;;22.29;39.43;101168.93;3603981;80;27312;-82
2022/08/07 18:14:12;;;;;;;8.58;2.42;;;;;;;22.09;39.99;101173.86;3574534;81;98805;-82
2022/08/07 18:19:43;;;;;;;3.37;1.80;;;;;;;21.92;40.77;101177.08;3602600;80;98625;-81
2022/08/07 18:24:49;;;;;;;6.42;2.65;;;;;;;21.73;41.77;101171.70;3521550;80;99172;-82
2022/08/07 18:30:06;;;;;;;4.72;2.05;;;;;;;21.80;43.52;101177.76;3610815;80;99221;-81
2022/08/07 18:35:31;;;;;;;5.08;2.25;;;;;;;21.54;43.18;101178.11;3622000;79;98883;-81
2022/08/07 18:41:04;;;;;;;3.75;1.72;;;;;;;21.33;43.50;101187.56;3644513;80;98887;-80
2022/08/07 18:46:14;;;;;;;4.90;1.95;;;;;;;21.11;43.93;101196.21;3595013;80;98875;-81
2022/08/07 18:51:26;;;;;;;6.03;1.92;;;;;;;20.91;44.65;101198.99;3552454;81;98811;-80
2022/08/07 18:56:44;;;;;;;6.95;1.95;;;;;;;20.74;44.92;101205.68;3623477;81;33214;-81
2022/08/07 19:02:08;;;;;;;3.50;1.60;;;;;;;20.54;45.23;101209.65;3614626;81;98668;-80
2022/08/07 19:07:30;;;;;;;4.28;1.90;;;;;;;20.38;45.94;101213.72;3620670;80;98595;-80
2022/08/07 19:12:45;;;;;;;4.83;1.77;;;;;;;20.22;46.01;101221.34;3640557;79;98741;-80
2022/08/07 19:17:55;;;;;;;4.23;1.53;;;;;;;20.06;46.43;101223.95;3657416;79;98881;-81
2022/08/07 19:23:16;;;;;;;3.80;1.47;;;;;;;19.94;47.02;101232.91;3638190;79;98758;-80
2022/08/07 19:28:23;;;;;;;5.22;1.70;;;;;;;19.83;47.75;101228.08;3641707;79;98757;-80
2022/08/07 19:33:26;;;;;;;4.17;1.70;;;;;;;19.72;48.14;101233.65;3603970;80;98840;-80
2022/08/07 19:38:32;;;;;;;4.87;1.45;;;;;;;19.59;48.39;101239.59;3622023;80;33673;-80
2022/08/07 19:43:40;;;;;;;4.15;1.65;;;;;;;19.47;48.75;101240.14;3652632;79;98885;-80
2022/08/07 19:48:48;;;;;;;4.58;1.75;;;;;;;19.37;49.33;101241.06;3597847;80;98617;-80
2022/08/07 19:53:53;;;;;;;4.83;1.90;;;;;;;19.25;49.65;101239.62;3575844;80;98734;-80
2022/08/07 19:58:56;;;;;;;4.62;2.33;;;;;;;19.17;50.22;101243.64;3591690;80;32432;-81
2022/08/07 20:04:00;;;;;;;3.72;1.70;;;;;;;19.08;50.60;101245.35;3594091;80;98733;-81
2022/08/07 20:09:02;;;;;;;6.47;1.60;;;;;;;18.96;50.94;101248.05;3598110;80;32863;-80
2022/08/07 20:14:04;;;;;;;5.30;1.75;;;;;;;18.87;51.35;101253.34;3576251;81;98502;-80
2022/08/07 20:19:08;;;;;;;4.80;2.10;;;;;;;18.80;51.82;101250.59;3600079;80;32518;-80
2022/08/07 20:24:22;;;;;;;5.83;2.05;;;;;;;18.60;52.05;101257.97;3591511;80;98738;-81
2022/08/07 20:29:28;;;;;;;7.22;2.35;;;;;;;18.60;52.05;101257.97;3596491;80;32819;-80
2022/08/07 20:34:33;;;;;;;6.45;1.80;;;;;;;18.51;52.65;101251.25;3594301;80;36619;-80
2022/08/07 20:39:37;;;;;;;6.80;2.00;;;;;;;18.43;52.97;101251.91;3598133;80;98841;-80
2022/08/07 20:44:42;;;;;;;7.08;1.95;;;;;;;18.34;53.33;101252.19;3602468;80;32580;-80
2022/08/07 20:49:45;;;;;;;4.73;2.27;;;;;;;18.28;53.68;101255.19;3593218;80;98423;-80
2022/08/07 20:54:52;;;;;;;4.90;2.10;;;;;;;18.18;53.94;101257.45;3604286;80;32491;-80
2022/08/07 20:59:58;;;;;;;3.35;1.62;;;;;;;18.12;54.30;101265.45;3587642;80;98818;-80
2022/08/07 21:05:01;;;;;;;6.62;2.37;;;;;;;18.04;54.59;101260.34;3596629;80;27427;-80
2022/08/07 21:10:07;;;;;;;5.62;1.80;;;;;;;17.94;54.90;101260.57;3584074;80;98942;-80
2022/08/07 21:15:10;;;;;;;3.70;2.03;;;;;;;17.84;54.99;101256.47;3609402;80;27511;-80
2022/08/07 21:20:14;;;;;;;11.20;3.35;;;;;;;17.77;55.34;101262.08;3580572;80;98483;-80
2022/08/07 21:25:47;;;;;;;6.65;2.30;;;;;;;17.69;55.63;101266.08;3594055;80;33590;-80
2022/08/07 21:31:02;;;;;;;8.35;2.10;;;;;;;17.64;56.14;101260.92;3597489;80;98725;-80
2022/08/07 21:36:14;;;;;;;7.45;2.17;;;;;;;17.60;56.47;101264.34;3596270;80;32462;-81
2022/08/07 21:41:29;;;;;;;5.87;2.12;;;;;;;17.55;56.83;101260.59;3611144;80;98306;-80
2022/08/07 21:46:35;;;;;;;7.85;2.17;;;;;;;17.48;56.81;101260.01;3584835;80;33338;-80
2022/08/07 21:52:02;;;;;;;7.40;2.25;;;;;;;17.44;57.04;101266.17;3603188;80;98307;-80
2022/08/07 21:57:12;;;;;;;7.10;2.00;;;;;;;17.39;57.36;101262.41;3604973;80;32560;-80
2022/08/07 22:02:44;;;;;;;7.28;2.22;;;;;;;17.37;57.62;101256.44;3604407;80;98374;-80
2022/08/07 22:07:47;;;;;;;6.42;2.02;;;;;;;17.32;57.91;101262.41;3601048;80;32555;-80
2022/08/07 22:13:01;;;;;;;5.62;2.17;;;;;;;17.31;58.12;101260.03;3596013;80;98427;-81
2022/08/07 22:18:06;;;;;;;5.05;1.90;;;;;;;17.30;58.27;101261.23;3600164;80;98960;-80
2022/08/07 22:23:31;;;;;;;4.22;1.77;;;;;;;17.29;58.50;101265.22;3606905;80;32462;-80
2022/08/07 22:28:57;;;;;;;5.40;1.95;;;;;;;17.29;58.67;101267.41;3596157;80;98770;-80
2022/08/07 22:34:05;;;;;;;4.67;2.47;;;;;;;17.25;58.82;101263.84;3598027;80;30439;-80
2022/08/07 22:39:24;;;;;;;9.13;2.58;;;;;;;17.26;58.97;101268.78;3615753;79;98467;-80
2022/08/07 22:44:29;;;;;;;4.78;1.92;;;;;;;17.22;58.89;101266.02;3633335;80;27168;-81
2022/08/07 22:49:41;;;;;;;5.73;2.23;;;;;;;17.22;59.15;101276.38;3622230;80;98552;-80
2022/08/07 22:55:17;;;;;;;4.67;1.92;;;;;;;17.17;59.21;101271.22;3613479;80;32453;-80
2022/08/07 23:00:27;;;;;;;5.28;2.08;;;;;;;17.12;59.04;101273.79;3597453;80;98685;-80
2022/08/07 23:05:43;;;;;;;6.37;2.55;;;;;;;16.98;58.90;101290.52;3630187;80;32499;-81
2022/08/07 23:10:55;;;;;;;5.87;2.10;;;;;;;16.81;58.98;101294.11;3622783;80;98843;-80
2022/08/07 23:16:34;;;;;;;5.60;2.12;;;;;;;16.79;59.22;101294.31;3622782;80;32550;-80
2022/08/07 23:21:55;;;;;;;5.85;1.67;;;;;;;16.71;58.95;101287.95;3625413;80;98766;-80
2022/08/07 23:27:39;;;;;;;10.58;2.02;;;;;;;16.65;59.11;101290.13;3599881;80;32463;-80
2022/08/07 23:33:09;;;;;;;5.83;1.82;;;;;;;16.59;59.06;101292.53;3623401;80;98465;-80
2022/08/07 23:38:52;;;;;;;8.68;2.25;;;;;;;16.53;59.37;101292.72;3608496;80;98538;-80
2022/08/07 23:44:29;;;;;;;3.33;1.80;;;;;;;16.49;58.95;101291.92;3608930;80;32686;-80
2022/08/07 23:49:59;;;;;;;6.03;1.85;;;;;;;16.42;59.71;101290.53;3601640;80;98637;-80
2022/08/07 23:55:29;;;;;;;7.35;2.45;;;;;;;16.41;59.93;101288.92;3591237;80;32554;-80
